createdAt,value
2019-05-01T00:02:31.581Z,9.92
2019-05-01T00:07:35.546Z,10.17
2019-05-01T00:12:31.578Z,9.85
2019-05-01T00:17:27.850Z,9.95
2019-05-01T00:22:24.038Z,9.65
2019-05-01T00:27:19.971Z,9.71
2019-05-01T00:32:15.969Z,9.29
2019-05-01T00:37:11.927Z,8.81
2019-05-01T00:42:07.854Z,9.18
2019-05-01T00:47:03.789Z,9.30
2019-05-01T00:51:59.739Z,9.16
2019-05-01T00:57:09.703Z,9.16
2019-05-01T01:02:10.235Z,8.66
2019-05-01T01:07:06.268Z,8.85
2019-05-01T01:12:02.301Z,9.13
2019-05-01T01:16:58.225Z,9.16
2019-05-01T01:21:54.297Z,8.91
2019-05-01T01:26:50.341Z,8.88
2019-05-01T01:31:46.365Z,8.97
2019-05-01T01:36:42.326Z,8.58
2019-05-01T01:41:38.364Z,8.46
2019-05-01T01:46:38.990Z,8.47
2019-05-01T01:51:35.033Z,8.44
2019-05-01T01:56:31.071Z,8.38
2019-05-01T02:01:46.994Z,8.19
2019-05-01T02:06:43.132Z,8.82
2019-05-01T02:11:39.367Z,8.66
2019-05-01T02:16:35.294Z,8.23
2019-05-01T02:21:31.753Z,8.10
2019-05-01T02:26:29.890Z,8.30
2019-05-01T02:31:31.038Z,8.08
2019-05-01T02:36:27.520Z,7.94
2019-05-01T02:41:27.438Z,7.73
2019-05-01T02:46:24.763Z,8.22
2019-05-01T02:51:23.130Z,7.86
2019-05-01T02:56:21.324Z,7.90
2019-05-01T03:01:17.618Z,7.75
2019-05-01T03:06:14.143Z,8.11
2019-05-01T03:11:10.101Z,8.09
2019-05-01T03:16:07.331Z,8.02
2019-05-01T03:21:08.462Z,7.74
2019-05-01T03:26:04.855Z,7.41
2019-05-01T03:31:00.877Z,7.63
2019-05-01T03:35:56.927Z,7.14
2019-05-01T03:40:52.955Z,7.80
2019-05-01T03:45:49.645Z,7.72
2019-05-01T03:50:47.549Z,7.48
2019-05-01T03:55:43.666Z,7.27
2019-05-01T04:00:50.960Z,7.33
2019-05-01T04:05:47.086Z,7.32
2019-05-01T04:10:43.703Z,7.56
2019-05-01T04:15:40.429Z,7.16
2019-05-01T04:20:41.713Z,6.83
2019-05-01T04:25:37.833Z,6.91
2019-05-01T04:30:38.435Z,6.91
2019-05-01T04:35:48.404Z,6.71
2019-05-01T04:40:44.717Z,6.78
2019-05-01T04:45:41.039Z,7.01
2019-05-01T04:50:38.510Z,6.82
2019-05-01T04:55:34.636Z,7.47
2019-05-01T05:00:30.733Z,7.83
2019-05-01T05:05:26.762Z,7.74
2019-05-01T05:10:23.195Z,7.54
2019-05-01T05:15:37.997Z,7.62
2019-05-01T05:20:34.802Z,7.68
2019-05-01T05:25:30.849Z,7.67
2019-05-01T05:30:27.574Z,7.74
2019-05-01T05:35:24.631Z,7.97
2019-05-01T05:40:20.667Z,8.01
2019-05-01T05:45:16.711Z,8.19
2019-05-01T05:50:18.221Z,8.05
2019-05-01T05:55:19.273Z,8.12
2019-05-01T06:00:17.140Z,8.13
2019-05-01T06:05:25.396Z,8.02
2019-05-01T06:10:24.445Z,8.12
2019-05-01T06:15:22.402Z,8.25
2019-05-01T06:20:30.745Z,8.00
2019-05-01T06:25:29.080Z,7.99
2019-05-01T06:30:25.903Z,8.12
2019-05-01T06:35:22.490Z,8.16
2019-05-01T06:40:22.463Z,8.01
2019-05-01T06:45:20.259Z,8.15
2019-05-01T06:50:19.971Z,8.42
2019-05-01T06:55:16.098Z,8.54
2019-05-01T07:00:15.966Z,8.51
2019-05-01T07:05:14.854Z,8.82
2019-05-01T07:10:10.419Z,8.36
2019-05-01T07:15:06.947Z,8.55
2019-05-01T07:20:16.694Z,8.91
2019-05-01T07:25:10.950Z,8.70
2019-05-01T07:30:09.613Z,8.91
2019-05-01T07:35:06.187Z,8.48
2019-05-01T07:40:04.595Z,8.76
2019-05-01T07:45:03.903Z,8.65
2019-05-01T07:50:10.678Z,8.76
2019-05-01T07:55:07.549Z,9.13
2019-05-01T08:00:10.245Z,8.90
2019-05-01T08:05:10.047Z,8.84
2019-05-01T08:10:06.012Z,8.76
2019-05-01T08:15:02.173Z,9.19
2019-05-01T08:20:17.167Z,9.17
2019-05-01T08:25:13.508Z,9.25
2019-05-01T08:30:18.567Z,9.34
2019-05-01T08:35:16.494Z,9.23
2019-05-01T08:40:15.919Z,9.95
2019-05-01T08:50:37.566Z,10.03
2019-05-01T08:55:33.681Z,10.17
2019-05-01T09:00:30.979Z,10.09
2019-05-01T09:05:30.343Z,10.04
2019-05-01T09:10:25.483Z,9.97
2019-05-01T09:15:21.524Z,10.24
2019-05-01T09:20:19.109Z,10.21
2019-05-01T09:25:17.176Z,10.27
2019-05-01T09:30:28.793Z,10.71
2019-05-01T09:35:24.798Z,10.99
2019-05-01T09:40:20.834Z,10.82
2019-05-01T09:45:17.020Z,11.43
2019-05-01T09:50:13.969Z,11.31
2019-05-01T09:55:17.849Z,11.32
2019-05-01T10:00:18.608Z,11.62
2019-05-01T10:05:29.027Z,11.46
2019-05-01T10:10:24.890Z,12.10
2019-05-01T10:15:23.997Z,11.24
2019-05-01T10:20:22.287Z,11.96
2019-05-01T10:25:18.509Z,12.33
2019-05-01T10:30:16.591Z,12.55
2019-05-01T10:35:21.091Z,12.84
2019-05-01T10:40:17.293Z,12.31
2019-05-01T10:45:13.330Z,12.96
2019-05-01T10:50:09.365Z,13.29
2019-05-01T10:55:11.147Z,13.33
2019-05-01T11:00:08.370Z,13.70
2019-05-01T11:05:04.573Z,13.18
2019-05-01T11:10:00.495Z,13.42
2019-05-01T11:14:56.425Z,13.94
2019-05-01T11:19:52.902Z,14.06
2019-05-01T11:24:48.844Z,14.46
2019-05-01T11:29:44.873Z,14.70
2019-05-01T11:34:48.869Z,14.35
2019-05-01T11:39:50.224Z,14.05
2019-05-01T11:44:46.423Z,14.21
2019-05-01T11:49:42.349Z,15.46
2019-05-01T11:54:38.277Z,14.71
2019-05-01T11:59:34.220Z,15.50
2019-05-01T12:04:30.138Z,15.18
2019-05-01T12:09:26.114Z,16.14
2019-05-01T12:14:22.024Z,16.17
2019-05-01T12:19:19.001Z,15.53
2019-05-01T12:24:15.325Z,15.88
2019-05-01T12:29:11.399Z,15.40
2019-05-01T12:34:07.975Z,17.28
2019-05-01T12:39:09.959Z,15.29
2019-05-01T12:44:06.081Z,16.13
2019-05-01T12:49:02.102Z,16.59
2019-05-01T12:54:03.281Z,16.21
2019-05-01T12:58:59.225Z,17.08
2019-05-01T13:03:55.178Z,16.22
2019-05-01T13:08:51.297Z,15.59
2019-05-01T13:13:48.030Z,15.93
2019-05-01T13:18:45.081Z,17.18
2019-05-01T13:23:41.173Z,16.86
2019-05-01T13:28:39.929Z,16.41
2019-05-01T13:33:36.985Z,16.93
2019-05-01T13:38:34.097Z,17.20
2019-05-01T13:43:30.077Z,17.09
2019-05-01T13:48:26.152Z,16.68
2019-05-01T13:53:22.106Z,16.25
2019-05-01T13:58:18.179Z,16.85
2019-05-01T14:03:14.451Z,17.37
2019-05-01T14:08:10.381Z,16.57
2019-05-01T14:13:06.303Z,16.49
2019-05-01T14:18:02.430Z,17.18
2019-05-01T14:23:03.286Z,17.42
2019-05-01T14:27:59.323Z,17.13
2019-05-01T14:32:55.246Z,16.82
2019-05-01T14:37:51.228Z,17.65
2019-05-01T14:42:47.152Z,16.71
2019-05-01T14:47:43.084Z,16.93
2019-05-01T14:52:39.113Z,17.25
2019-05-01T14:57:35.036Z,17.37
2019-05-01T15:02:30.966Z,16.99
2019-05-01T15:07:26.887Z,17.03
2019-05-01T15:12:22.917Z,17.40
2019-05-01T15:17:20.826Z,17.33
2019-05-01T15:22:17.546Z,16.90
2019-05-01T15:27:13.459Z,17.37
2019-05-01T15:32:09.486Z,17.22
2019-05-01T15:37:05.481Z,17.22
2019-05-01T15:42:15.704Z,17.39
2019-05-01T15:47:11.728Z,16.72
2019-05-01T15:52:07.655Z,17.00
2019-05-01T15:57:03.987Z,16.80
2019-05-01T16:02:00.596Z,17.33
2019-05-01T16:06:56.597Z,16.53
2019-05-01T16:17:02.825Z,16.31
2019-05-01T16:21:58.885Z,17.36
2019-05-01T16:26:55.169Z,17.29
2019-05-01T16:31:51.503Z,17.22
2019-05-01T16:36:47.552Z,16.94
2019-05-01T16:41:45.386Z,16.94
2019-05-01T16:46:41.342Z,17.25
2019-05-01T16:51:37.312Z,17.55
2019-05-01T16:56:33.325Z,17.48
2019-05-01T17:01:49.703Z,17.19
2019-05-01T17:06:50.294Z,17.30
2019-05-01T17:11:46.328Z,16.87
2019-05-01T17:16:42.391Z,16.91
2019-05-01T17:21:39.120Z,16.64
2019-05-01T17:26:35.068Z,16.91
2019-05-01T17:31:31.111Z,16.95
2019-05-01T17:36:27.089Z,17.12
2019-05-01T17:41:27.250Z,16.39
2019-05-01T17:46:20.949Z,16.40
2019-05-01T17:51:19.808Z,16.27
2019-05-01T17:56:19.577Z,16.10
2019-05-01T18:01:15.544Z,15.92
2019-05-01T18:06:13.499Z,15.55
2019-05-01T18:11:14.004Z,15.34
2019-05-01T18:16:13.844Z,15.21
2019-05-01T18:21:11.781Z,15.18
2019-05-01T18:26:12.351Z,14.57
2019-05-01T18:31:10.390Z,14.12
2019-05-01T18:36:06.805Z,13.94
2019-05-01T18:41:10.732Z,13.82
2019-05-01T18:46:08.660Z,13.71
2019-05-01T18:51:05.176Z,13.62
2019-05-01T18:56:05.361Z,13.54
2019-05-01T19:00:59.210Z,13.41
2019-05-01T19:05:55.139Z,13.38
2019-05-01T19:10:51.245Z,13.24
2019-05-01T19:15:47.182Z,13.20
2019-05-01T19:20:58.356Z,13.21
2019-05-01T19:25:42.985Z,13.15
2019-05-01T19:30:38.879Z,13.05
2019-05-01T19:35:34.837Z,13.02
2019-05-01T19:40:32.746Z,12.48
2019-05-01T19:45:28.966Z,11.90
2019-05-01T19:50:47.905Z,11.55
2019-05-01T19:55:44.965Z,11.26
2019-05-01T20:00:49.328Z,10.98
2019-05-01T20:05:45.273Z,10.67
2019-05-01T20:10:41.198Z,10.73
2019-05-01T20:15:37.226Z,10.53
2019-05-01T20:20:36.753Z,10.55
2019-05-01T20:25:34.294Z,10.14
2019-05-01T20:30:30.331Z,9.92
2019-05-01T20:35:28.541Z,10.05
2019-05-01T20:40:24.134Z,9.94
2019-05-01T20:45:20.266Z,9.83
2019-05-01T20:50:17.656Z,9.68
2019-05-01T20:55:13.788Z,9.53
2019-05-01T21:00:11.246Z,9.78
2019-05-01T21:05:13.300Z,10.15
2019-05-01T21:10:09.432Z,9.59
2019-05-01T21:15:05.764Z,9.36
2019-05-01T21:20:03.705Z,9.39
2019-05-01T21:24:59.710Z,9.21
2019-05-01T21:29:55.634Z,9.06
2019-05-01T21:34:53.561Z,9.76
2019-05-01T21:39:49.457Z,9.69
2019-05-01T21:44:45.394Z,9.91
2019-05-01T21:49:42.915Z,9.82
2019-05-01T21:54:39.074Z,9.43
2019-05-01T21:59:35.380Z,8.98
2019-05-01T22:04:31.954Z,8.60
2019-05-01T22:09:29.768Z,8.41
2019-05-01T22:14:39.912Z,8.27
2019-05-01T22:19:35.960Z,8.24
2019-05-01T22:24:45.884Z,8.08
2019-05-01T22:29:43.726Z,7.94
2019-05-01T22:34:41.564Z,7.78
2019-05-01T22:39:39.398Z,7.67
2019-05-01T22:44:35.422Z,7.85
2019-05-01T22:49:31.457Z,7.54
2019-05-01T22:54:27.387Z,7.83
2019-05-01T22:59:23.313Z,7.69
2019-05-01T23:04:19.544Z,7.88
2019-05-01T23:09:17.688Z,7.79
2019-05-01T23:14:14.016Z,7.60
2019-05-01T23:19:10.046Z,7.45
2019-05-01T23:24:05.966Z,7.68
2019-05-01T23:29:01.889Z,7.73
2019-05-01T23:33:57.875Z,7.58
2019-05-01T23:38:53.847Z,7.39
2019-05-01T23:43:49.831Z,7.30
2019-05-01T23:48:45.761Z,7.04
2019-05-01T23:53:44.267Z,6.72
2019-05-01T23:58:39.567Z,6.56
